Hlavní strana
METAR-TAF:

METAR-TAF

Letiště :

Letiště Luena

Luena, Angola

zeměpisná šířka: 11-46-05S, zeměpisná délka: 19-53-50E, výška: 1329 m

Aktuální stav počasí

Zpráva byla vytvořena před 31 minutami, v 11:00 UTC
Bezvětří
Teplota 25°C
Vlhkost vzduchu 94%
Tlak 1024 hPa
Viditelnost 10 km a více
Skoro jasno ve výšce 4000 ft

METAR: FNUE 261100Z 00000KT 9999 FEW040 25/24 Q1024

Čas: 12:31 (11:31 UTC)

Předpověď počasí

Zpráva byla vytvořena před 12 hodinami a 31 minutami, v 23:00 UTC
Předpověď platná od 26 v 00 UTC do 26 v 12 UTC
Jižní vítr 8 kt
Viditelnost 10 km a více
Skoro jasno ve výšce 2000 ft
Změna
od 26 v 06 UTC do 26 v 08 UTC
Viditelnost 10 km a více
Žádná oblačnost pod 1500 m, nevyskytují se cumulonimby.

TAF: FNUE 252300Z 2600/2612 18008KT 9999 FEW020 BECMG 2606/2608 CAVOK

Stav a předpovědi počasí z více než 4 000 letišť (zprávy METAR a TAF).

Červené a žluté tečky na mapě představují dostupné meteorologické stanice.

Když kurzor umístíte na tečku, zobrazí se název stanice.

Pak kliknutím zobrazíte stav a předpověď počasí.

Chcete-li změnit mapu, kliknutím na zelené tlačítko se znaménkem +mapu přiblížíte, kliknutím na zelené tlačítko se znaménkem – mapu oddálíte a kliknutím na zelené šipky přejdete na sousední mapy.


METAR-TAF: